Time;durP1;ratioP1;P1;durP2;ratioP2;P2;SDS_P1;SDS_P2;PMS_P1;PMS_P2;Temp;Humidity;BMP_temperature;BMP_pressure;BME280_temperature;BME280_humidity;BME280_pressure;Samples;Min_cycle;Max_cycle;Signal;HPM_P1;HPM_P2
2022/03/09 00:01:44;;;;;;;48.48;38.38;;;24.10;88.10;;;;;;1856237;75;21154;-85
2022/03/09 00:04:14;;;;;;;50.92;38.53;;;24.10;88.80;;;;;;1846895;77;21099;-83
2022/03/09 00:06:45;;;;;;;49.08;38.53;;;24.10;89.20;;;;;;1854578;77;21638;-82
2022/03/09 00:09:16;;;;;;;46.40;38.28;;;24.10;88.70;;;;;;1841802;77;21179;-84
2022/03/09 00:11:46;;;;;;;52.95;39.65;;;24.10;89.20;;;;;;1864903;75;21178;-83
2022/03/09 00:14:17;;;;;;;51.92;39.40;;;24.10;89.20;;;;;;1854364;77;21151;-83
2022/03/09 00:16:48;;;;;;;52.17;39.58;;;24.10;89.60;;;;;;1857880;75;21220;-83
2022/03/09 00:19:19;;;;;;;47.30;39.00;;;24.10;90.20;;;;;;1869731;75;21187;-84
2022/03/09 00:21:50;;;;;;;51.13;39.55;;;24.10;90.00;;;;;;1849036;77;21124;-84
2022/03/09 00:24:20;;;;;;;46.90;37.63;;;24.10;90.00;;;;;;1857231;75;21099;-83
2022/03/09 00:26:51;;;;;;;50.80;36.35;;;24.10;90.00;;;;;;1858183;77;21120;-83
2022/03/09 00:29:22;;;;;;;48.08;37.85;;;24.10;90.20;;;;;;1831027;78;21156;-83
2022/03/09 00:31:52;;;;;;;44.50;36.73;;;24.10;90.10;;;;;;1855285;76;21149;-84
2022/03/09 00:34:23;;;;;;;46.92;36.73;;;24.10;90.00;;;;;;1862074;75;21560;-83
2022/03/09 00:36:54;;;;;;;46.42;36.65;;;24.10;89.30;;;;;;1844007;75;21636;-84
2022/03/09 00:39:25;;;;;;;47.23;36.77;;;24.10;89.60;;;;;;1835286;77;21699;-84
2022/03/09 00:41:55;;;;;;;51.00;38.33;;;24.10;89.50;;;;;;1831362;77;21419;-85
2022/03/09 00:44:26;;;;;;;47.53;36.50;;;24.10;89.70;;;;;;1835801;77;21659;-84
2022/03/09 00:46:57;;;;;;;46.68;37.23;;;24.20;89.30;;;;;;1830089;77;21175;-84
2022/03/09 00:49:28;;;;;;;46.73;36.98;;;24.20;88.90;;;;;;1831872;78;21586;-85
2022/03/09 00:51:59;;;;;;;43.38;33.65;;;24.30;88.80;;;;;;1837842;77;21830;-84
2022/03/09 00:54:29;;;;;;;42.53;34.70;;;24.30;88.10;;;;;;1837242;77;21238;-85
2022/03/09 00:57:00;;;;;;;42.53;36.15;;;24.40;87.90;;;;;;1832743;78;21714;-84
2022/03/09 00:59:30;;;;;;;40.40;32.60;;;24.40;87.60;;;;;;1832945;77;22222;-84
2022/03/09 01:02:01;;;;;;;41.40;32.80;;;24.40;87.10;;;;;;1831319;77;21116;-84
2022/03/09 01:04:34;;;;;;;40.73;30.27;;;24.40;86.80;;;;;;1818949;77;21226;-84
2022/03/09 01:07:06;;;;;;;36.58;28.65;;;24.50;86.60;;;;;;1822696;77;21647;-85
2022/03/09 01:09:36;;;;;;;34.88;28.73;;;24.50;86.00;;;;;;1832915;77;21616;-85
2022/03/09 01:12:07;;;;;;;37.10;29.15;;;24.60;85.70;;;;;;1826232;77;21160;-85
2022/03/09 01:14:38;;;;;;;39.23;28.75;;;24.60;85.30;;;;;;1828444;77;21585;-84
2022/03/09 01:17:08;;;;;;;39.78;29.02;;;24.60;85.10;;;;;;1831279;77;21128;-84
2022/03/09 01:19:39;;;;;;;34.55;27.07;;;24.70;85.10;;;;;;1837269;77;21101;-84
2022/03/09 01:22:10;;;;;;;34.92;27.05;;;24.70;84.80;;;;;;1833799;78;21193;-84
2022/03/09 01:24:40;;;;;;;32.13;27.22;;;24.70;84.70;;;;;;1835973;78;21238;-84
2022/03/09 01:27:11;;;;;;;35.13;26.55;;;24.80;84.70;;;;;;1839051;77;21151;-84
2022/03/09 01:29:42;;;;;;;31.20;23.95;;;24.80;84.30;;;;;;1829913;78;21184;-85
2022/03/09 01:32:12;;;;;;;30.57;24.43;;;24.80;83.70;;;;;;1830991;78;21191;-84
2022/03/09 01:34:43;;;;;;;30.37;26.30;;;24.80;83.30;;;;;;1833450;77;21650;-83
2022/03/09 01:37:13;;;;;;;29.82;24.77;;;24.90;83.40;;;;;;1825317;77;21809;-72
2022/03/09 01:39:45;;;;;;;31.02;25.30;;;25.00;83.30;;;;;;1814688;77;21192;-72
2022/03/09 01:42:16;;;;;;;25.92;19.48;;;25.00;83.30;;;;;;1815752;77;21679;-72
2022/03/09 01:44:47;;;;;;;27.87;19.35;;;25.00;82.20;;;;;;1836130;76;21167;-72
2022/03/09 01:47:17;;;;;;;23.70;17.15;;;25.10;80.30;;;;;;1839701;76;21187;-73
2022/03/09 01:49:48;;;;;;;23.30;17.45;;;25.20;80.10;;;;;;1845458;76;21151;-72
2022/03/09 01:52:19;;;;;;;21.40;17.90;;;25.30;79.40;;;;;;1827289;76;21146;-74
2022/03/09 01:54:51;;;;;;;27.42;17.77;;;25.30;79.20;;;;;;1844768;76;22079;-73
2022/03/09 01:57:22;;;;;;;25.75;18.67;;;25.40;79.10;;;;;;1837339;76;21166;-72
2022/03/09 01:59:54;;;;;;;29.20;19.77;;;25.50;79.50;;;;;;1835884;75;21111;-71
2022/03/09 02:02:24;;;;;;;24.75;18.40;;;25.50;79.50;;;;;;1842269;76;21241;-72
2022/03/09 02:04:55;;;;;;;27.52;18.92;;;25.60;79.30;;;;;;1838575;76;21163;-72
2022/03/09 02:10:01;;;;;;;32.25;19.98;;;25.70;79.00;;;;;;1827858;76;21147;-72
2022/03/09 02:12:31;;;;;;;26.42;19.37;;;25.70;78.50;;;;;;1845172;77;21199;-71
2022/03/09 02:15:03;;;;;;;28.95;20.35;;;25.70;78.40;;;;;;1832934;77;21662;-71
2022/03/09 02:17:34;;;;;;;25.92;19.80;;;25.70;78.50;;;;;;1840323;76;21072;-72
2022/03/09 02:20:05;;;;;;;26.35;19.10;;;25.80;78.70;;;;;;1842912;75;21245;-72
2022/03/09 02:22:38;;;;;;;24.15;17.17;;;25.80;78.80;;;;;;1828013;76;21856;-71
2022/03/09 02:25:10;;;;;;;25.32;17.65;;;25.90;77.00;;;;;;1804826;77;21070;-72
2022/03/09 02:27:42;;;;;;;23.07;17.65;;;26.00;77.20;;;;;;1820453;77;21184;-72
2022/03/09 02:30:15;;;;;;;23.45;17.75;;;26.00;76.50;;;;;;1839669;75;21227;-72
2022/03/09 02:32:48;;;;;;;25.77;18.50;;;26.10;76.20;;;;;;1824902;76;21166;-71
2022/03/09 02:35:20;;;;;;;28.98;21.48;;;26.20;76.00;;;;;;1842572;76;21241;-71
2022/03/09 02:37:51;;;;;;;27.90;18.82;;;26.20;75.70;;;;;;1830302;76;21202;-71
2022/03/09 02:40:22;;;;;;;23.47;18.25;;;26.40;76.50;;;;;;1824837;77;21210;-71
2022/03/09 02:42:52;;;;;;;22.87;18.48;;;26.50;76.50;;;;;;1826956;77;21167;-72
2022/03/09 02:45:23;;;;;;;25.97;19.17;;;26.60;76.60;;;;;;1828794;77;21065;-71
2022/03/09 02:47:54;;;;;;;25.02;18.77;;;26.70;76.20;;;;;;1825990;77;21595;-71
2022/03/09 02:50:25;;;;;;;23.55;17.20;;;26.70;76.10;;;;;;1825869;77;21135;-71
2022/03/09 02:52:55;;;;;;;25.75;17.25;;;26.80;75.70;;;;;;1821234;77;21164;-71
2022/03/09 02:55:28;;;;;;;22.13;15.45;;;26.90;75.40;;;;;;1827540;77;21650;-71
2022/03/09 02:57:59;;;;;;;22.40;16.35;;;27.00;74.60;;;;;;1819615;77;21195;-73
2022/03/09 03:00:29;;;;;;;28.38;17.67;;;27.00;73.60;;;;;;1825180;77;21128;-73
2022/03/09 03:03:00;;;;;;;21.25;17.48;;;27.10;74.40;;;;;;1819148;77;21154;-71
2022/03/09 03:05:31;;;;;;;22.52;17.15;;;27.20;73.90;;;;;;1823387;77;21261;-72
2022/03/09 03:08:02;;;;;;;20.70;16.97;;;27.30;74.00;;;;;;1831274;77;21548;-72
2022/03/09 03:10:32;;;;;;;23.90;16.93;;;27.40;73.10;;;;;;1839119;77;21136;-71
2022/03/09 03:13:03;;;;;;;21.82;17.30;;;27.50;72.60;;;;;;1828220;77;21182;-72
2022/03/09 03:15:34;;;;;;;28.32;18.17;;;27.60;72.60;;;;;;1830158;77;21247;-71
2022/03/09 03:18:05;;;;;;;26.68;18.07;;;27.70;72.30;;;;;;1830341;77;21102;-71
2022/03/09 03:20:35;;;;;;;24.32;17.32;;;27.80;72.00;;;;;;1829791;77;21842;-71
2022/03/09 03:23:06;;;;;;;22.75;16.87;;;27.90;72.10;;;;;;1837180;77;21253;-71
2022/03/09 03:25:38;;;;;;;21.90;17.42;;;28.10;71.50;;;;;;1831711;77;21183;-71
2022/03/09 03:28:08;;;;;;;23.05;17.85;;;28.20;71.60;;;;;;1832977;77;21637;-71
2022/03/09 03:30:39;;;;;;;20.85;16.82;;;28.40;71.60;;;;;;1836737;77;21222;-71
2022/03/09 03:33:10;;;;;;;25.77;18.25;;;28.50;71.30;;;;;;1832348;77;21199;-71
2022/03/09 03:35:42;;;;;;;20.10;17.73;;;28.60;69.90;;;;;;1842625;77;21101;-71
2022/03/09 03:38:14;;;;;;;20.30;16.75;;;28.70;69.20;;;;;;1821307;77;21215;-71
2022/03/09 03:40:46;;;;;;;20.72;17.57;;;28.80;69.50;;;;;;1837625;77;21146;-71
2022/03/09 03:43:17;;;;;;;27.37;18.60;;;28.90;69.60;;;;;;1785105;79;21155;-70
2022/03/09 03:45:48;;;;;;;24.25;17.90;;;29.00;68.30;;;;;;1837909;77;21155;-70
2022/03/09 03:48:19;;;;;;;24.07;18.50;;;29.10;68.60;;;;;;1832817;77;21183;-71
2022/03/09 03:50:49;;;;;;;20.72;18.30;;;29.20;68.70;;;;;;1832886;77;21253;-70
2022/03/09 03:53:20;;;;;;;24.07;18.87;;;29.30;68.00;;;;;;1826791;77;21224;-70
2022/03/09 03:55:51;;;;;;;22.85;17.98;;;29.40;68.00;;;;;;1826883;77;21599;-72
2022/03/09 03:58:22;;;;;;;23.92;18.82;;;29.40;67.40;;;;;;1815563;77;21500;-71
2022/03/09 04:00:52;;;;;;;21.40;18.80;;;29.50;66.90;;;;;;1817651;77;21140;-71
2022/03/09 04:03:23;;;;;;;23.25;19.90;;;29.50;67.60;;;;;;1828594;77;21147;-71
2022/03/09 04:05:54;;;;;;;23.55;17.87;;;29.50;67.80;;;;;;1831050;77;21285;-71
2022/03/09 04:08:25;;;;;;;26.25;19.73;;;29.60;67.70;;;;;;1826416;76;21208;-70
2022/03/09 04:10:56;;;;;;;26.02;19.30;;;29.70;68.10;;;;;;1790593;79;21916;-70
2022/03/09 04:13:27;;;;;;;23.75;18.92;;;29.80;66.90;;;;;;1822433;78;21485;-70
2022/03/09 04:15:58;;;;;;;21.62;18.20;;;29.80;68.20;;;;;;1823949;77;21140;-70
2022/03/09 04:18:48;;;;;;;30.92;19.23;;;29.90;67.50;;;;;;1824628;77;21199;-71
2022/03/09 04:21:19;;;;;;;23.83;18.70;;;30.00;67.10;;;;;;1837147;77;21166;-70
2022/03/09 04:23:49;;;;;;;23.73;20.02;;;30.10;67.30;;;;;;1841022;77;21130;-71
2022/03/09 04:26:20;;;;;;;26.65;20.05;;;30.20;65.80;;;;;;1849357;77;21571;-71
2022/03/09 04:28:51;;;;;;;25.12;19.52;;;30.30;66.60;;;;;;1847897;75;21221;-72
2022/03/09 04:31:23;;;;;;;24.10;19.30;;;30.30;65.50;;;;;;1816855;77;21119;-71
2022/03/09 04:33:54;;;;;;;21.85;19.00;;;30.50;65.80;;;;;;1851173;76;21135;-71
2022/03/09 04:36:25;;;;;;;23.18;18.57;;;30.60;66.90;;;;;;1847210;76;21999;-72
2022/03/09 04:38:56;;;;;;;22.80;18.92;;;30.70;65.30;;;;;;1859510;75;21252;-73
2022/03/09 04:41:27;;;;;;;22.52;18.12;;;30.80;66.20;;;;;;1851177;75;21175;-72
2022/03/09 04:43:57;;;;;;;24.98;17.73;;;30.80;64.70;;;;;;1853741;75;21145;-73
2022/03/09 04:46:28;;;;;;;22.07;17.45;;;30.90;64.60;;;;;;1853416;75;21641;-71
2022/03/09 04:49:00;;;;;;;22.77;17.35;;;30.90;64.20;;;;;;1859393;75;21152;-72
2022/03/09 04:51:31;;;;;;;22.40;18.17;;;31.00;64.70;;;;;;1850240;75;21618;-73
2022/03/09 04:54:02;;;;;;;24.25;17.77;;;31.10;64.00;;;;;;1862756;75;21167;-72
2022/03/09 04:56:32;;;;;;;24.27;18.85;;;31.10;63.70;;;;;;1862337;75;21067;-72
2022/03/09 04:59:03;;;;;;;20.02;16.20;;;31.10;62.30;;;;;;1867817;75;21151;-72
2022/03/09 05:01:34;;;;;;;21.25;16.87;;;31.20;63.00;;;;;;1861807;75;21175;-72
2022/03/09 05:04:05;;;;;;;19.73;15.72;;;31.30;63.10;;;;;;1848704;75;21141;-72
2022/03/09 05:06:35;;;;;;;16.77;13.08;;;31.30;61.20;;;;;;1853788;75;21146;-71
2022/03/09 05:09:06;;;;;;;24.10;15.08;;;31.30;58.30;;;;;;1844160;75;21166;-73
2022/03/09 05:11:38;;;;;;;16.40;13.65;;;31.40;61.50;;;;;;1863827;75;21204;-71
2022/03/09 05:14:09;;;;;;;18.52;13.68;;;31.40;61.00;;;;;;1870168;75;21571;-72
2022/03/09 05:16:40;;;;;;;14.73;11.90;;;31.50;59.10;;;;;;1852578;75;21091;-71
2022/03/09 05:19:11;;;;;;;12.13;10.72;;;31.50;56.90;;;;;;1842197;75;21127;-72
2022/03/09 05:21:41;;;;;;;15.98;12.80;;;31.60;56.20;;;;;;1838529;76;21108;-71
2022/03/09 05:24:16;;;;;;;19.27;13.68;;;31.60;55.40;;;;;;1828828;76;21216;-72
2022/03/09 05:26:49;;;;;;;18.05;12.63;;;31.60;55.90;;;;;;1840029;77;21124;-70
2022/03/09 05:29:18;;;;;;;20.35;12.50;;;31.60;56.30;;;;;;1825956;77;21573;-71
2022/03/09 05:31:48;;;;;;;17.00;12.35;;;31.60;55.20;;;;;;1842491;76;21240;-71
2022/03/09 05:34:19;;;;;;;18.92;13.32;;;31.70;54.30;;;;;;1846019;76;21147;-72
2022/03/09 05:36:50;;;;;;;17.92;13.25;;;31.80;55.60;;;;;;1837133;76;21175;-69
2022/03/09 05:39:21;;;;;;;18.75;12.90;;;31.80;56.40;;;;;;1822511;77;21179;-70
2022/03/09 05:41:51;;;;;;;16.15;13.03;;;31.80;56.70;;;;;;1836047;76;21134;-70
2022/03/09 05:44:22;;;;;;;18.20;14.05;;;31.80;57.00;;;;;;1836117;76;21190;-70
2022/03/09 05:46:54;;;;;;;17.73;13.38;;;31.80;57.60;;;;;;1830895;76;21175;-71
2022/03/09 05:49:25;;;;;;;16.60;13.05;;;31.70;56.40;;;;;;1837743;76;21146;-71
2022/03/09 05:51:56;;;;;;;20.35;13.45;;;31.70;55.80;;;;;;1828288;76;21638;-71
2022/03/09 05:54:27;;;;;;;18.00;13.45;;;31.80;55.90;;;;;;1849321;76;21135;-70
2022/03/09 05:56:57;;;;;;;16.87;12.93;;;31.80;55.70;;;;;;1842473;76;21217;-71
2022/03/09 05:59:28;;;;;;;19.52;13.68;;;31.90;56.50;;;;;;1845404;76;21120;-70
2022/03/09 06:01:59;;;;;;;18.23;14.13;;;31.90;57.10;;;;;;1833691;76;21631;-70
2022/03/09 06:04:30;;;;;;;18.20;14.13;;;32.00;57.10;;;;;;1833247;77;21202;-70
2022/03/09 06:07:03;;;;;;;17.77;14.20;;;32.00;57.00;;;;;;1830320;76;21189;-69
2022/03/09 06:09:34;;;;;;;17.48;13.10;;;32.00;56.90;;;;;;1828394;77;21119;-70
2022/03/09 06:12:05;;;;;;;14.83;13.20;;;32.00;57.00;;;;;;1825745;77;21174;-71
2022/03/09 06:14:36;;;;;;;15.98;12.23;;;32.00;57.00;;;;;;1835536;76;21135;-70
2022/03/09 06:17:07;;;;;;;20.15;13.10;;;32.00;57.30;;;;;;1836461;76;21615;-70
2022/03/09 06:19:38;;;;;;;17.15;14.15;;;32.00;56.90;;;;;;1850328;76;22029;-69
2022/03/09 06:22:09;;;;;;;17.55;13.05;;;32.00;56.70;;;;;;1863220;75;21303;-71
2022/03/09 06:24:39;;;;;;;15.95;12.58;;;32.00;57.20;;;;;;1850190;75;21153;-70
2022/03/09 06:27:10;;;;;;;19.27;12.98;;;32.00;56.60;;;;;;1847702;76;21083;-70
2022/03/09 06:29:41;;;;;;;16.05;13.00;;;32.10;56.70;;;;;;1855501;76;21146;-69
2022/03/09 06:32:12;;;;;;;15.60;12.85;;;32.00;56.90;;;;;;1851148;76;21629;-70
2022/03/09 06:34:43;;;;;;;18.65;12.23;;;32.10;56.70;;;;;;1859908;76;21142;-70
2022/03/09 06:37:13;;;;;;;19.40;12.93;;;32.20;56.30;;;;;;1851273;76;21216;-70
2022/03/09 06:39:44;;;;;;;16.93;13.00;;;32.20;56.30;;;;;;1849492;76;21199;-71
2022/03/09 06:42:15;;;;;;;19.70;12.43;;;32.30;56.20;;;;;;1847550;76;21181;-71
2022/03/09 06:44:45;;;;;;;16.57;12.13;;;32.40;56.00;;;;;;1853255;76;21162;-71
2022/03/09 06:47:17;;;;;;;20.45;13.58;;;32.40;55.90;;;;;;1863450;76;22709;-72
2022/03/09 06:49:48;;;;;;;19.20;13.08;;;32.50;55.80;;;;;;1856701;75;21220;-70
2022/03/09 06:52:19;;;;;;;16.65;12.15;;;32.50;56.00;;;;;;1860697;75;21166;-71
2022/03/09 06:54:50;;;;;;;20.05;15.80;;;32.50;56.00;;;;;;1858339;76;21653;-70
2022/03/09 06:57:21;;;;;;;29.50;20.35;;;32.50;55.90;;;;;;1820120;77;21165;-71
2022/03/09 06:59:51;;;;;;;16.42;13.72;;;32.60;54.80;;;;;;1860818;76;21091;-72
2022/03/09 07:02:22;;;;;;;21.70;12.68;;;32.60;54.80;;;;;;1847161;77;21103;-71
2022/03/09 07:04:54;;;;;;;19.70;12.63;;;32.60;53.90;;;;;;1838038;75;21230;-72
2022/03/09 07:07:24;;;;;;;21.77;13.60;;;32.70;54.40;;;;;;1859408;76;21193;-71
2022/03/09 07:09:55;;;;;;;14.50;11.28;;;32.70;54.30;;;;;;1859229;75;21173;-72
2022/03/09 07:12:27;;;;;;;19.15;13.38;;;32.70;54.60;;;;;;1858662;76;21178;-72
2022/03/09 07:14:58;;;;;;;20.72;14.98;;;32.70;54.40;;;;;;1853474;76;21182;-71
2022/03/09 07:17:29;;;;;;;17.02;14.75;;;32.70;54.60;;;;;;1854926;76;21083;-72
2022/03/09 07:20:00;;;;;;;16.62;13.00;;;32.70;54.60;;;;;;1850954;76;21194;-73
2022/03/09 07:22:31;;;;;;;17.30;13.43;;;32.60;54.60;;;;;;1849566;76;21187;-72
2022/03/09 07:25:02;;;;;;;17.37;12.55;;;32.70;54.70;;;;;;1838935;76;21588;-72
2022/03/09 07:27:33;;;;;;;19.40;13.20;;;32.70;54.60;;;;;;1849807;76;21186;-72
2022/03/09 07:30:06;;;;;;;17.82;13.03;;;32.70;54.80;;;;;;1844446;76;21166;-72
2022/03/09 07:32:38;;;;;;;16.00;12.33;;;32.60;54.70;;;;;;1848122;76;21156;-71
2022/03/09 07:35:10;;;;;;;16.77;13.00;;;32.60;54.90;;;;;;1837080;76;21125;-72
2022/03/09 07:37:41;;;;;;;14.98;12.60;;;32.60;54.80;;;;;;1842368;76;21151;-70
2022/03/09 07:40:12;;;;;;;17.35;11.90;;;32.60;54.20;;;;;;1838165;76;21627;-73
2022/03/09 07:42:43;;;;;;;18.40;13.05;;;32.60;56.10;;;;;;1843602;76;21245;-72
2022/03/09 07:45:14;;;;;;;16.42;12.85;;;32.60;55.60;;;;;;1844299;76;21237;-70
2022/03/09 07:47:44;;;;;;;18.82;12.85;;;32.60;55.00;;;;;;1843553;76;21592;-73
2022/03/09 07:50:16;;;;;;;16.23;12.20;;;32.60;54.80;;;;;;1844704;76;21059;-71
2022/03/09 07:52:46;;;;;;;17.50;11.45;;;32.50;55.50;;;;;;1836888;76;21221;-70
2022/03/09 07:55:19;;;;;;;17.48;12.20;;;32.50;54.80;;;;;;1848081;75;21139;-70
2022/03/09 07:57:50;;;;;;;15.55;12.43;;;32.60;54.60;;;;;;1842794;76;21631;-69
2022/03/09 08:00:21;;;;;;;20.52;12.90;;;32.60;54.50;;;;;;1831248;76;21072;-68
2022/03/09 08:02:51;;;;;;;14.58;11.60;;;32.50;55.30;;;;;;1834417;76;21186;-70
2022/03/09 08:05:24;;;;;;;15.70;11.80;;;32.40;55.00;;;;;;1825863;75;21154;-69
2022/03/09 08:07:55;;;;;;;19.27;12.90;;;32.40;54.70;;;;;;1834826;76;21244;-69
2022/03/09 08:10:26;;;;;;;13.83;11.65;;;32.30;55.20;;;;;;1832189;77;21656;-70
2022/03/09 08:12:57;;;;;;;15.20;13.00;;;32.30;55.70;;;;;;1804056;77;21104;-69
2022/03/09 08:15:28;;;;;;;18.65;13.48;;;32.20;55.70;;;;;;1813320;77;21199;-71
2022/03/09 08:17:59;;;;;;;17.75;12.65;;;32.30;55.60;;;;;;1802042;77;21151;-71
2022/03/09 08:20:30;;;;;;;21.65;13.45;;;32.20;55.70;;;;;;1810313;77;21162;-68
2022/03/09 08:23:12;;;;;;;16.87;12.88;;;32.20;56.00;;;;;;1803695;77;21200;-70
2022/03/09 08:25:42;;;;;;;17.65;12.30;;;32.20;56.70;;;;;;1919791;73;21181;-70
2022/03/09 08:28:14;;;;;;;14.98;12.68;;;32.10;56.20;;;;;;1960635;71;21892;-69
2022/03/09 08:30:45;;;;;;;20.77;13.03;;;32.10;56.50;;;;;;1927977;72;21118;-70
2022/03/09 08:33:16;;;;;;;17.60;13.78;;;32.00;56.50;;;;;;1935239;72;21656;-69
2022/03/09 08:35:47;;;;;;;19.20;15.13;;;32.00;57.00;;;;;;1932816;72;21081;-69
2022/03/09 08:38:17;;;;;;;20.23;16.30;;;32.00;56.90;;;;;;1964628;71;21130;-69
2022/03/09 08:40:49;;;;;;;15.05;12.90;;;31.90;57.00;;;;;;1971850;71;21114;-69
2022/03/09 08:43:19;;;;;;;17.00;12.68;;;31.90;57.20;;;;;;1970405;71;21071;-69
2022/03/09 08:45:50;;;;;;;19.40;16.05;;;31.90;57.20;;;;;;1968125;71;21171;-69
2022/03/09 08:48:21;;;;;;;20.77;15.05;;;31.90;57.40;;;;;;1964270;71;21525;-70
2022/03/09 08:50:52;;;;;;;15.28;12.60;;;31.90;57.30;;;;;;1966130;71;21131;-70
2022/03/09 08:53:23;;;;;;;14.23;12.00;;;31.80;57.00;;;;;;1962018;71;21594;-71
2022/03/09 08:55:54;;;;;;;15.58;12.18;;;31.80;56.50;;;;;;1974243;71;21252;-70
2022/03/09 08:58:25;;;;;;;16.20;12.28;;;31.80;57.30;;;;;;1973178;71;21615;-69
2022/03/09 09:00:56;;;;;;;16.42;11.50;;;31.70;57.50;;;;;;1963976;71;21396;-70
2022/03/09 09:03:27;;;;;;;19.67;12.65;;;31.70;57.60;;;;;;1965706;71;21216;-70
2022/03/09 09:05:58;;;;;;;16.07;12.00;;;31.70;57.70;;;;;;1964991;71;21154;-70
2022/03/09 09:08:29;;;;;;;16.97;12.35;;;31.70;58.00;;;;;;1961023;71;21491;-71
2022/03/09 09:10:59;;;;;;;15.70;12.23;;;31.70;57.70;;;;;;1971155;71;21182;-70
2022/03/09 09:13:30;;;;;;;18.85;12.58;;;31.70;57.20;;;;;;1978577;71;21104;-70
2022/03/09 09:16:01;;;;;;;17.17;12.25;;;31.70;57.50;;;;;;1969410;71;21239;-69
2022/03/09 09:18:33;;;;;;;21.07;17.12;;;31.70;58.00;;;;;;1974775;71;21123;-70
2022/03/09 09:21:04;;;;;;;15.83;12.80;;;31.70;57.70;;;;;;1966084;71;21079;-70
2022/03/09 09:23:38;;;;;;;17.98;12.90;;;31.60;57.90;;;;;;1967232;71;21652;-69
2022/03/09 09:26:08;;;;;;;22.00;15.08;;;31.60;58.10;;;;;;1949115;71;21167;-69
2022/03/09 09:28:40;;;;;;;18.07;12.55;;;31.50;58.20;;;;;;1939598;73;21205;-71
2022/03/09 09:31:10;;;;;;;14.83;12.33;;;31.50;58.20;;;;;;1950929;72;21685;-70
2022/03/09 09:33:41;;;;;;;15.72;12.10;;;31.40;58.00;;;;;;1944993;72;21814;-70
2022/03/09 09:36:12;;;;;;;17.00;12.93;;;31.40;57.90;;;;;;1946527;72;21644;-69
2022/03/09 09:38:42;;;;;;;19.35;12.58;;;31.40;57.90;;;;;;1948049;73;21219;-71
2022/03/09 09:41:18;;;;;;;17.77;12.85;;;31.30;58.10;;;;;;1941990;72;21100;-70
2022/03/09 09:43:46;;;;;;;18.87;12.45;;;31.30;58.00;;;;;;1937580;73;21240;-70
2022/03/09 09:46:17;;;;;;;18.20;12.75;;;31.30;58.30;;;;;;1943462;73;21140;-71
2022/03/09 09:48:48;;;;;;;16.37;12.88;;;31.30;58.10;;;;;;1929232;73;21615;-69
2022/03/09 09:51:21;;;;;;;17.95;12.68;;;31.20;58.00;;;;;;1943973;73;21527;-70
2022/03/09 09:53:53;;;;;;;13.58;12.18;;;31.20;58.00;;;;;;1942536;73;21146;-71
2022/03/09 09:56:24;;;;;;;17.23;14.23;;;31.30;58.30;;;;;;1942687;72;21121;-72
2022/03/09 09:58:56;;;;;;;17.95;13.13;;;31.20;58.30;;;;;;1948329;73;21571;-71
2022/03/09 10:01:27;;;;;;;19.07;13.32;;;31.20;58.60;;;;;;1949260;72;21146;-71
2022/03/09 10:03:58;;;;;;;23.67;21.20;;;31.20;58.60;;;;;;1953657;72;21123;-85
2022/03/09 10:06:30;;;;;;;18.73;13.78;;;31.20;58.60;;;;;;1944288;72;21186;-84
2022/03/09 10:09:05;;;;;;;18.50;13.45;;;31.20;58.60;;;;;;1944009;72;21135;-83
2022/03/09 10:11:38;;;;;;;19.00;12.93;;;31.20;59.10;;;;;;1945345;73;21205;-82
2022/03/09 10:14:08;;;;;;;17.82;13.38;;;31.20;58.80;;;;;;1944567;72;21131;-82
2022/03/09 10:16:39;;;;;;;17.52;13.13;;;31.10;58.90;;;;;;1944852;73;21621;-83
2022/03/09 10:19:10;;;;;;;15.70;12.75;;;31.10;59.20;;;;;;1942539;72;21912;-84
2022/03/09 10:21:41;;;;;;;17.65;13.55;;;31.10;59.30;;;;;;1950092;73;21189;-84
2022/03/09 10:24:11;;;;;;;19.87;13.95;;;31.00;59.40;;;;;;1944041;72;21721;-82
2022/03/09 10:26:43;;;;;;;16.90;14.10;;;31.00;59.20;;;;;;1969703;71;21071;-84
2022/03/09 10:29:17;;;;;;;15.48;13.78;;;31.00;59.40;;;;;;1977405;71;21154;-84
2022/03/09 10:31:51;;;;;;;17.07;13.80;;;31.00;59.60;;;;;;1974805;71;21594;-83
2022/03/09 10:34:24;;;;;;;16.25;12.93;;;30.90;59.50;;;;;;1975500;71;21126;-83
2022/03/09 10:36:54;;;;;;;21.65;14.07;;;31.00;59.40;;;;;;1980138;71;21108;-83
2022/03/09 10:39:28;;;;;;;18.27;13.80;;;30.90;59.50;;;;;;1974326;71;21064;-82
2022/03/09 10:42:00;;;;;;;19.10;14.28;;;31.00;59.80;;;;;;1969522;71;21700;-84
2022/03/09 10:44:33;;;;;;;17.12;13.62;;;30.90;59.80;;;;;;1971891;71;21115;-84
2022/03/09 10:47:03;;;;;;;18.75;14.47;;;30.90;60.00;;;;;;1966183;71;21205;-82
2022/03/09 10:49:34;;;;;;;21.40;13.00;;;30.90;60.00;;;;;;1974618;72;21211;-84
2022/03/09 10:52:06;;;;;;;18.60;14.45;;;30.80;61.10;;;;;;1979428;71;21116;-84
2022/03/09 10:54:36;;;;;;;16.80;13.85;;;30.80;60.00;;;;;;1973990;72;22030;-83
2022/03/09 10:57:10;;;;;;;21.85;14.20;;;30.70;60.00;;;;;;1950834;73;21575;-85
2022/03/09 10:59:44;;;;;;;19.23;14.23;;;30.70;60.40;;;;;;1947926;72;21099;-85
2022/03/09 11:02:19;;;;;;;16.10;13.15;;;30.70;60.60;;;;;;1948646;73;21255;-85
2022/03/09 11:04:51;;;;;;;16.25;14.15;;;30.70;60.90;;;;;;1952029;72;21131;-85
2022/03/09 11:07:22;;;;;;;19.65;14.18;;;30.60;61.00;;;;;;1944500;73;21138;-85
2022/03/09 11:09:53;;;;;;;17.45;14.25;;;30.60;61.40;;;;;;1941693;73;21184;-84
2022/03/09 11:12:23;;;;;;;24.82;19.27;;;30.60;61.30;;;;;;1939644;72;21175;-85
2022/03/09 11:14:56;;;;;;;24.72;17.48;;;30.50;61.60;;;;;;1951642;73;21103;-84
2022/03/09 11:17:26;;;;;;;22.60;17.37;;;30.50;61.70;;;;;;1908289;74;21180;-85
2022/03/09 11:19:58;;;;;;;22.82;15.63;;;30.50;62.00;;;;;;1952463;72;21149;-85
2022/03/09 11:22:28;;;;;;;22.58;16.40;;;30.40;62.10;;;;;;1903538;75;21136;-85
2022/03/09 11:24:59;;;;;;;20.60;14.33;;;30.40;62.30;;;;;;1950329;72;21179;-85
2022/03/09 11:27:31;;;;;;;18.75;14.80;;;30.40;62.40;;;;;;1952814;72;21193;-86
2022/03/09 11:30:04;;;;;;;22.02;15.13;;;30.30;62.50;;;;;;1944585;72;21143;-85
2022/03/09 11:32:36;;;;;;;21.55;16.07;;;30.30;62.70;;;;;;1941959;73;21200;-86
2022/03/09 11:35:09;;;;;;;18.55;15.40;;;30.30;62.90;;;;;;1949716;73;21122;-83
2022/03/09 11:37:41;;;;;;;58.23;51.00;;;30.30;62.90;;;;;;1933330;73;21177;-85
2022/03/09 11:40:10;;;;;;;23.57;17.98;;;30.30;63.20;;;;;;1944180;72;21256;-86
2022/03/09 11:42:44;;;;;;;21.35;16.52;;;30.20;63.30;;;;;;1949269;73;21134;-85
2022/03/09 11:45:16;;;;;;;21.75;14.85;;;30.20;63.40;;;;;;1944609;73;21212;-86
2022/03/09 11:47:49;;;;;;;23.50;16.07;;;30.20;63.50;;;;;;1948994;73;21167;-85
2022/03/09 11:50:20;;;;;;;22.87;17.45;;;30.30;63.70;;;;;;1946116;72;21153;-85
2022/03/09 11:52:54;;;;;;;25.15;15.70;;;30.30;63.70;;;;;;1945261;73;21103;-83
2022/03/09 11:55:25;;;;;;;28.73;17.30;;;30.30;63.40;;;;;;1950595;72;21567;-83
2022/03/09 11:57:59;;;;;;;24.05;16.15;;;30.30;63.20;;;;;;1946231;73;21154;-84
2022/03/09 12:00:29;;;;;;;20.68;16.32;;;30.30;63.40;;;;;;1950927;72;21158;-83
2022/03/09 12:03:00;;;;;;;20.68;15.03;;;30.30;63.80;;;;;;1950374;73;21649;-82
2022/03/09 12:05:32;;;;;;;18.50;14.55;;;30.30;63.80;;;;;;1953802;73;21124;-83
2022/03/09 12:08:04;;;;;;;20.20;14.90;;;30.30;63.90;;;;;;1948663;73;21205;-84
2022/03/09 12:10:37;;;;;;;19.87;14.58;;;30.30;64.00;;;;;;1954270;72;21124;-84
2022/03/09 12:13:09;;;;;;;22.87;14.70;;;30.20;63.90;;;;;;1949230;73;21588;-83
2022/03/09 12:15:42;;;;;;;19.35;14.45;;;30.20;64.10;;;;;;1948622;73;21075;-83
2022/03/09 12:18:15;;;;;;;19.42;14.28;;;30.20;64.20;;;;;;1950254;73;21131;-83
2022/03/09 12:20:46;;;;;;;17.37;14.85;;;30.10;64.20;;;;;;1926368;73;21139;-84
2022/03/09 12:23:17;;;;;;;20.62;14.95;;;30.20;64.40;;;;;;1928000;73;22289;-84
2022/03/09 12:25:50;;;;;;;22.15;13.93;;;30.10;64.30;;;;;;1942603;74;21195;-84
2022/03/09 12:30:56;;;;;;;19.15;13.70;;;30.10;64.10;;;;;;1945772;72;21137;-85
2022/03/09 12:33:29;;;;;;;22.32;14.70;;;30.10;64.30;;;;;;1974295;72;21167;-85
2022/03/09 12:36:02;;;;;;;16.60;14.00;;;30.10;64.60;;;;;;1954778;73;21124;-85
2022/03/09 12:38:35;;;;;;;19.02;15.40;;;30.10;64.50;;;;;;1955637;72;21217;-84
2022/03/09 12:41:08;;;;;;;18.55;15.58;;;30.10;64.60;;;;;;1951733;72;21126;-85
2022/03/09 12:43:41;;;;;;;19.42;15.68;;;30.10;64.80;;;;;;1948409;73;21126;-84
2022/03/09 12:46:12;;;;;;;23.18;15.48;;;30.10;64.60;;;;;;1943358;73;21492;-84
2022/03/09 12:48:44;;;;;;;19.67;14.43;;;30.00;64.30;;;;;;1955559;72;21078;-84
2022/03/09 12:51:15;;;;;;;18.62;14.45;;;30.00;64.20;;;;;;1954955;73;21127;-84
2022/03/09 12:53:47;;;;;;;20.95;14.90;;;30.00;64.20;;;;;;1955547;73;21231;-84